createdAt,value
2023-05-14T00:00:56.790Z,51.21
2023-05-14T00:02:02.086Z,51.22
2023-05-14T00:03:08.101Z,51.2
2023-05-14T00:04:13.671Z,51.21
2023-05-14T00:05:18.876Z,51.19
2023-05-14T00:06:24.064Z,51.2
2023-05-14T00:07:29.248Z,51.19
2023-05-14T00:08:34.423Z,51.21
2023-05-14T00:09:39.636Z,51.2
2023-05-14T00:10:44.846Z,51.21
2023-05-14T00:11:50.023Z,51.16
2023-05-14T00:12:55.245Z,51.19
2023-05-14T00:14:00.423Z,51.17
2023-05-14T00:15:05.694Z,51.17
2023-05-14T00:16:11.081Z,51.13
2023-05-14T00:17:16.298Z,51.14
2023-05-14T00:18:21.484Z,51.13
2023-05-14T00:19:26.653Z,51.13
2023-05-14T00:20:31.967Z,51.1
2023-05-14T00:21:37.144Z,51.09
2023-05-14T00:22:42.295Z,51.08
2023-05-14T00:23:47.477Z,51.07
2023-05-14T00:24:52.664Z,51.07
2023-05-14T00:25:57.858Z,51.04
2023-05-14T00:27:03.028Z,51.06
2023-05-14T00:28:08.184Z,51.03
2023-05-14T00:29:13.399Z,51.02
2023-05-14T00:30:18.562Z,51.03
2023-05-14T00:31:23.817Z,51.01
2023-05-14T00:32:29.149Z,51.01
2023-05-14T00:33:34.333Z,51
2023-05-14T00:34:39.494Z,50.99
2023-05-14T00:35:44.690Z,50.98
2023-05-14T00:36:49.839Z,50.97
2023-05-14T00:37:55.016Z,50.99
2023-05-14T00:39:00.247Z,50.97
2023-05-14T00:40:05.450Z,50.95
2023-05-14T00:41:10.634Z,50.95
2023-05-14T00:42:15.851Z,50.95
2023-05-14T00:43:21.110Z,50.93
2023-05-14T00:44:26.358Z,50.94
2023-05-14T00:45:31.537Z,50.94
2023-05-14T00:46:36.787Z,50.94
2023-05-14T00:47:42.221Z,50.96
2023-05-14T00:48:47.432Z,50.96
2023-05-14T00:49:52.614Z,50.92
2023-05-14T00:50:57.823Z,50.91
2023-05-14T00:52:03.006Z,50.9
2023-05-14T00:53:08.684Z,50.9
2023-05-14T00:54:13.870Z,50.88
2023-05-14T00:55:19.093Z,50.88
2023-05-14T00:56:24.249Z,50.86
2023-05-14T00:57:29.411Z,50.84
2023-05-14T00:58:34.587Z,50.84
2023-05-14T00:59:39.760Z,50.82
2023-05-14T01:00:45.078Z,50.83
2023-05-14T01:01:50.261Z,50.82
2023-05-14T01:02:55.838Z,50.81
2023-05-14T01:04:01.716Z,50.81
2023-05-14T01:05:06.991Z,50.8
2023-05-14T01:06:12.211Z,50.8
2023-05-14T01:07:17.475Z,50.78
2023-05-14T01:08:22.707Z,50.78
2023-05-14T01:09:27.906Z,50.77
2023-05-14T01:10:33.087Z,50.77
2023-05-14T01:11:38.268Z,50.76
2023-05-14T01:12:43.449Z,50.75
2023-05-14T01:13:48.631Z,50.74
2023-05-14T01:14:53.826Z,50.75
2023-05-14T01:15:59.072Z,50.74
2023-05-14T01:17:04.284Z,50.73
2023-05-14T01:18:09.652Z,50.71
2023-05-14T01:19:15.103Z,50.72
2023-05-14T01:20:20.408Z,50.71
2023-05-14T01:21:25.602Z,50.7
2023-05-14T01:22:30.775Z,50.7
2023-05-14T01:23:35.952Z,50.69
2023-05-14T01:24:41.208Z,50.68
2023-05-14T01:25:46.373Z,50.68
2023-05-14T01:26:51.548Z,50.66
2023-05-14T01:27:56.722Z,50.66
2023-05-14T01:29:01.889Z,50.64
2023-05-14T01:30:07.081Z,50.65
2023-05-14T01:31:12.271Z,50.64
2023-05-14T01:32:17.655Z,50.63
2023-05-14T01:33:22.909Z,50.63
2023-05-14T01:34:28.112Z,50.62
2023-05-14T01:35:33.281Z,50.62
2023-05-14T01:36:38.519Z,50.62
2023-05-14T01:37:43.672Z,50.62
2023-05-14T01:38:48.843Z,50.63
2023-05-14T01:39:54.030Z,50.59
2023-05-14T01:40:59.204Z,50.61
2023-05-14T01:42:04.400Z,50.63
2023-05-14T01:43:09.694Z,50.63
2023-05-14T01:44:14.938Z,50.63
2023-05-14T01:45:20.139Z,50.64
2023-05-14T01:46:25.480Z,50.64
2023-05-14T01:47:30.825Z,50.63
2023-05-14T01:48:35.996Z,50.63
2023-05-14T01:49:41.176Z,50.63
2023-05-14T01:50:46.390Z,50.63
2023-05-14T01:51:51.594Z,50.63
2023-05-14T01:52:56.971Z,50.61
2023-05-14T01:54:02.230Z,50.63
2023-05-14T01:55:07.478Z,50.61
2023-05-14T01:56:12.689Z,50.62
2023-05-14T01:57:17.939Z,50.61
2023-05-14T01:58:23.087Z,50.61
2023-05-14T01:59:28.277Z,50.61
2023-05-14T02:00:33.435Z,50.63
2023-05-14T02:01:38.828Z,50.61
2023-05-14T02:02:44.127Z,50.61
2023-05-14T02:03:49.419Z,50.61
2023-05-14T02:04:54.644Z,50.61
2023-05-14T02:05:59.795Z,50.61
2023-05-14T02:07:05.045Z,50.6
2023-05-14T02:08:10.213Z,50.6
2023-05-14T02:09:15.378Z,50.61
2023-05-14T02:10:20.850Z,50.6
2023-05-14T02:11:26.214Z,50.6
2023-05-14T02:12:31.412Z,50.61
2023-05-14T02:13:36.639Z,50.6
2023-05-14T02:14:41.788Z,50.59
2023-05-14T02:15:47.139Z,50.58
2023-05-14T02:16:52.332Z,50.59
2023-05-14T02:17:57.694Z,50.58
2023-05-14T02:19:03.186Z,50.58
2023-05-14T02:20:08.391Z,50.58
2023-05-14T02:21:13.582Z,50.59
2023-05-14T02:22:18.759Z,50.56
2023-05-14T02:23:42.809Z,50.57
2023-05-14T02:24:48.008Z,50.54
2023-05-14T02:25:53.156Z,50.54
2023-05-14T02:26:58.307Z,50.54
2023-05-14T02:28:03.473Z,50.55
2023-05-14T02:29:08.633Z,50.53
2023-05-14T02:30:14.174Z,50.53
2023-05-14T02:31:19.580Z,50.54
2023-05-14T02:32:25.147Z,50.53
2023-05-14T02:33:30.584Z,50.53
2023-05-14T02:34:35.850Z,50.52
2023-05-14T02:35:41.056Z,50.5
2023-05-14T02:36:46.186Z,50.52
2023-05-14T02:37:51.369Z,50.51
2023-05-14T02:38:56.537Z,50.5
2023-05-14T02:40:01.762Z,50.48
2023-05-14T02:41:06.956Z,50.5
2023-05-14T02:42:12.165Z,50.48
2023-05-14T02:43:17.357Z,50.49
2023-05-14T02:44:22.543Z,50.49
2023-05-14T02:45:27.804Z,50.49
2023-05-14T02:46:33.122Z,50.49
2023-05-14T02:47:40.630Z,50.49
2023-05-14T02:48:45.866Z,50.49
2023-05-14T02:49:51.032Z,50.49
2023-05-14T02:50:56.334Z,50.48
2023-05-14T02:52:01.543Z,50.48
2023-05-14T02:53:06.822Z,50.47
2023-05-14T02:54:12.017Z,50.48
2023-05-14T02:55:17.206Z,50.47
2023-05-14T02:56:22.392Z,50.45
2023-05-14T02:57:27.622Z,50.45
2023-05-14T02:58:32.847Z,50.46
2023-05-14T02:59:38.835Z,50.44
2023-05-14T03:00:45.681Z,50.44
2023-05-14T03:01:52.277Z,50.43
2023-05-14T03:02:58.775Z,50.44
2023-05-14T03:04:04.369Z,50.43
2023-05-14T03:05:09.555Z,50.42
2023-05-14T03:06:14.752Z,50.42
2023-05-14T03:07:19.960Z,50.42
2023-05-14T03:08:25.163Z,50.42
2023-05-14T03:09:30.331Z,50.41
2023-05-14T03:10:35.543Z,50.42
2023-05-14T03:11:40.742Z,50.42
2023-05-14T03:12:45.953Z,50.42
2023-05-14T03:13:51.189Z,50.41
2023-05-14T03:14:56.417Z,50.39
2023-05-14T03:16:01.600Z,50.4
2023-05-14T03:17:06.942Z,50.39
2023-05-14T03:18:12.204Z,50.39
2023-05-14T03:19:17.673Z,50.39
2023-05-14T03:20:23.422Z,50.37
2023-05-14T03:21:28.788Z,50.38
2023-05-14T03:22:33.957Z,50.37
2023-05-14T03:23:39.139Z,50.37
2023-05-14T03:24:44.309Z,50.37
2023-05-14T03:25:49.480Z,50.37
2023-05-14T03:26:54.623Z,50.37
2023-05-14T03:27:59.791Z,50.36
2023-05-14T03:29:05.000Z,50.36
2023-05-14T03:30:10.238Z,50.35
2023-05-14T03:31:15.666Z,50.35
2023-05-14T03:32:21.036Z,50.35
2023-05-14T03:33:26.249Z,50.35
2023-05-14T03:34:31.432Z,50.35
2023-05-14T03:35:36.605Z,50.36
2023-05-14T03:36:41.781Z,50.33
2023-05-14T03:37:46.912Z,50.33
2023-05-14T03:38:52.093Z,50.32
2023-05-14T03:39:57.248Z,50.33
2023-05-14T03:41:02.455Z,50.32
2023-05-14T03:42:07.620Z,50.32
2023-05-14T03:43:12.796Z,50.33
2023-05-14T03:44:17.978Z,50.33
2023-05-14T03:45:23.166Z,50.33
2023-05-14T03:46:28.338Z,50.31
2023-05-14T03:47:33.819Z,50.31
2023-05-14T03:48:39.162Z,50.31
2023-05-14T03:49:44.384Z,50.31
2023-05-14T03:50:49.554Z,50.31
2023-05-14T03:51:54.751Z,50.31
2023-05-14T03:52:59.885Z,50.31
2023-05-14T03:54:05.068Z,50.31
2023-05-14T03:55:10.222Z,50.3
2023-05-14T03:56:15.408Z,50.31
2023-05-14T03:57:20.574Z,50.31
2023-05-14T03:58:25.788Z,50.29
2023-05-14T03:59:30.938Z,50.31
2023-05-14T04:00:36.114Z,50.29
2023-05-14T04:01:41.357Z,50.29
2023-05-14T04:02:46.840Z,50.29
2023-05-14T04:03:52.697Z,50.31
2023-05-14T04:04:58.033Z,50.28
2023-05-14T04:06:03.232Z,50.28
2023-05-14T04:07:08.459Z,50.26
2023-05-14T04:08:13.652Z,50.27
2023-05-14T04:09:19.138Z,50.27
2023-05-14T04:10:24.917Z,50.27
2023-05-14T04:11:30.239Z,50.26
2023-05-14T04:12:35.436Z,50.26
2023-05-14T04:13:40.672Z,50.26
2023-05-14T04:14:45.849Z,50.25
2023-05-14T04:15:51.252Z,50.25
2023-05-14T04:16:56.532Z,50.25
2023-05-14T04:18:01.913Z,50.25
2023-05-14T04:19:07.449Z,50.26
2023-05-14T04:20:12.808Z,50.26
2023-05-14T04:21:18.005Z,50.26
2023-05-14T04:22:23.184Z,50.27
2023-05-14T04:23:28.391Z,50.26
2023-05-14T04:24:33.616Z,50.26
2023-05-14T04:25:38.760Z,50.26
2023-05-14T04:26:43.940Z,50.26
2023-05-14T04:27:49.140Z,50.25
2023-05-14T04:28:54.340Z,50.25
2023-05-14T04:29:59.537Z,50.25
2023-05-14T04:31:04.765Z,50.24
2023-05-14T04:32:10.304Z,50.23
2023-05-14T04:33:15.469Z,50.23
2023-05-14T04:34:20.663Z,50.23
2023-05-14T04:35:27.788Z,50.23
2023-05-14T04:36:32.974Z,50.22
2023-05-14T04:37:38.133Z,50.22
2023-05-14T04:38:43.301Z,50.21
2023-05-14T04:39:48.497Z,50.21
2023-05-14T04:40:53.716Z,50.22
2023-05-14T04:41:58.969Z,50.23
2023-05-14T04:43:04.152Z,50.21
2023-05-14T04:44:09.340Z,50.21
2023-05-14T04:45:14.648Z,50.21
2023-05-14T04:46:20.005Z,50.2
2023-05-14T04:47:25.418Z,50.21
2023-05-14T04:48:30.590Z,50.19
2023-05-14T04:49:35.764Z,50.2
2023-05-14T04:50:40.943Z,50.2
2023-05-14T04:51:46.169Z,50.2
2023-05-14T04:52:51.364Z,50.19
2023-05-14T04:53:56.563Z,50.19
2023-05-14T04:55:01.755Z,50.19
2023-05-14T04:56:06.968Z,50.18
2023-05-14T04:57:12.164Z,50.19
2023-05-14T04:58:17.379Z,50.18
2023-05-14T04:59:22.542Z,50.2
2023-05-14T05:00:28.580Z,50.18
2023-05-14T05:01:33.995Z,50.19
2023-05-14T05:02:39.451Z,50.18
2023-05-14T05:03:44.898Z,50.18
2023-05-14T05:04:50.054Z,50.18
2023-05-14T05:05:55.234Z,50.18
2023-05-14T05:07:00.475Z,50.18
2023-05-14T05:08:05.695Z,50.17
2023-05-14T05:09:10.909Z,50.18
2023-05-14T05:10:16.106Z,50.17
2023-05-14T05:11:21.280Z,50.17
2023-05-14T05:12:26.500Z,50.17
2023-05-14T05:13:31.656Z,50.17
2023-05-14T05:14:36.836Z,50.16
2023-05-14T05:15:42.090Z,50.16
2023-05-14T05:16:47.276Z,50.17
2023-05-14T05:17:52.776Z,50.16
2023-05-14T05:18:58.135Z,50.16
2023-05-14T05:20:03.441Z,50.16
2023-05-14T05:21:08.641Z,50.17
2023-05-14T05:22:13.872Z,50.16
2023-05-14T05:23:19.090Z,50.17
2023-05-14T05:24:24.253Z,50.15
2023-05-14T05:25:29.429Z,50.14
2023-05-14T05:26:34.601Z,50.14
2023-05-14T05:27:39.756Z,50.14
2023-05-14T05:28:44.948Z,50.14
2023-05-14T05:29:50.151Z,50.14
2023-05-14T05:30:55.604Z,50.14
2023-05-14T05:32:00.822Z,50.14
2023-05-14T05:33:06.340Z,50.16
2023-05-14T05:34:11.560Z,50.15
2023-05-14T05:35:16.950Z,50.18
2023-05-14T05:36:22.108Z,50.15
2023-05-14T05:37:27.297Z,50.15
2023-05-14T05:38:32.475Z,50.15
2023-05-14T05:39:37.947Z,50.18
2023-05-14T05:40:43.110Z,50.18
2023-05-14T05:41:48.394Z,50.18
2023-05-14T05:42:53.576Z,50.18
2023-05-14T05:43:58.727Z,50.18
2023-05-14T05:45:03.924Z,50.18
2023-05-14T05:46:09.189Z,50.18
2023-05-14T05:47:14.375Z,50.18
2023-05-14T05:48:19.583Z,50.19
2023-05-14T05:49:24.819Z,50.17
2023-05-14T05:50:30.026Z,50.2
2023-05-14T05:51:35.219Z,50.19
2023-05-14T05:52:40.385Z,50.2
2023-05-14T05:53:45.553Z,50.21
2023-05-14T05:54:50.743Z,50.21
2023-05-14T05:55:55.922Z,50.21
2023-05-14T05:57:01.107Z,50.21
2023-05-14T05:58:06.298Z,50.21
2023-05-14T05:59:11.525Z,50.21
2023-05-14T06:00:16.736Z,50.23
2023-05-14T06:01:21.962Z,50.21
2023-05-14T06:02:27.487Z,50.22
2023-05-14T06:03:32.710Z,50.22
2023-05-14T06:04:37.914Z,50.25
2023-05-14T06:05:43.502Z,50.26
2023-05-14T06:06:48.784Z,50.25
2023-05-14T06:07:53.953Z,50.26
2023-05-14T06:08:59.112Z,50.25
2023-05-14T06:10:04.305Z,50.28
2023-05-14T06:11:09.486Z,50.29
2023-05-14T06:12:14.729Z,50.3
2023-05-14T06:13:19.920Z,50.3
2023-05-14T06:14:25.101Z,50.31
2023-05-14T06:15:30.298Z,50.32
2023-05-14T06:16:35.636Z,50.3
2023-05-14T06:17:41.052Z,50.31
2023-05-14T06:18:46.377Z,50.32
2023-05-14T06:19:51.598Z,50.34
2023-05-14T06:20:56.841Z,50.39
2023-05-14T06:22:02.067Z,50.42
2023-05-14T06:23:07.269Z,50.45
2023-05-14T06:24:12.458Z,50.55
2023-05-14T06:25:17.677Z,50.66
2023-05-14T06:26:22.844Z,50.69
2023-05-14T06:27:28.020Z,50.67
2023-05-14T06:28:33.203Z,50.66
2023-05-14T06:29:38.369Z,50.64
2023-05-14T06:30:43.569Z,50.61
2023-05-14T06:31:48.896Z,50.62
2023-05-14T06:32:54.382Z,50.63
2023-05-14T06:33:59.746Z,50.59
2023-05-14T06:35:04.921Z,50.6
2023-05-14T06:36:10.096Z,50.59
2023-05-14T06:37:15.282Z,50.58
2023-05-14T06:38:20.447Z,50.56
2023-05-14T06:39:25.626Z,50.55
2023-05-14T06:40:30.859Z,50.55
2023-05-14T06:41:36.031Z,50.54
2023-05-14T06:42:41.216Z,50.55
2023-05-14T06:43:46.384Z,50.54
2023-05-14T06:44:51.553Z,50.54
2023-05-14T06:45:56.760Z,50.54
2023-05-14T06:47:01.995Z,50.53
2023-05-14T06:48:07.506Z,50.52
2023-05-14T06:49:13.053Z,50.52
2023-05-14T06:50:18.322Z,50.53
2023-05-14T06:51:23.526Z,50.53
2023-05-14T06:52:28.673Z,50.52
2023-05-14T06:53:33.853Z,50.54
2023-05-14T06:54:39.054Z,50.51
2023-05-14T06:55:44.332Z,50.52
2023-05-14T06:56:49.540Z,50.52
2023-05-14T06:57:54.697Z,50.52
2023-05-14T06:58:59.887Z,50.5
2023-05-14T07:00:06.417Z,50.51
2023-05-14T07:01:11.805Z,50.51
2023-05-14T07:02:16.972Z,50.49
2023-05-14T07:03:22.180Z,50.5
2023-05-14T07:04:27.610Z,50.5
2023-05-14T07:05:32.832Z,50.5
2023-05-14T07:06:38.027Z,50.49
2023-05-14T07:07:43.269Z,50.48
2023-05-14T07:08:48.550Z,50.48
2023-05-14T07:09:53.710Z,50.48
2023-05-14T07:10:59.223Z,50.47
2023-05-14T07:12:04.433Z,50.46
2023-05-14T07:13:09.593Z,50.46
2023-05-14T07:14:14.746Z,50.46
2023-05-14T07:15:19.926Z,50.46
2023-05-14T07:16:25.163Z,50.45
2023-05-14T07:17:30.817Z,50.45
2023-05-14T07:18:36.254Z,50.45
2023-05-14T07:19:41.468Z,50.45
2023-05-14T07:20:46.622Z,50.44
2023-05-14T07:21:51.807Z,50.44
2023-05-14T07:22:57.032Z,50.42
2023-05-14T07:24:02.216Z,50.43
2023-05-14T07:25:07.426Z,50.42
2023-05-14T07:26:12.614Z,50.42
2023-05-14T07:27:17.843Z,50.4
2023-05-14T07:28:23.018Z,50.4
2023-05-14T07:29:28.207Z,50.4
2023-05-14T07:30:33.497Z,50.39
2023-05-14T07:31:39.142Z,50.39
2023-05-14T07:32:45.154Z,50.38
2023-05-14T07:33:50.439Z,50.38
2023-05-14T07:34:55.708Z,50.38
2023-05-14T07:36:00.891Z,50.38
2023-05-14T07:37:06.095Z,50.37
2023-05-14T07:38:11.288Z,50.37
2023-05-14T07:39:16.504Z,50.38
2023-05-14T07:40:21.838Z,50.37
2023-05-14T07:41:27.155Z,50.37
2023-05-14T07:42:39.535Z,50.36
2023-05-14T07:43:44.730Z,50.37
2023-05-14T07:44:49.925Z,50.37
2023-05-14T07:45:55.098Z,50.36
2023-05-14T07:47:00.386Z,50.36
2023-05-14T07:48:06.117Z,50.36
2023-05-14T07:49:11.479Z,50.36
2023-05-14T07:50:16.733Z,50.36
2023-05-14T07:51:21.946Z,50.35
2023-05-14T07:52:27.123Z,50.35
2023-05-14T07:53:32.356Z,50.34
2023-05-14T07:54:37.537Z,50.35
2023-05-14T07:55:42.732Z,50.34
2023-05-14T07:56:47.956Z,50.35
2023-05-14T07:57:53.152Z,50.34
2023-05-14T07:58:58.341Z,50.34
2023-05-14T08:00:03.507Z,50.34
2023-05-14T08:01:08.800Z,50.34
2023-05-14T08:02:14.036Z,50.34
2023-05-14T08:03:19.526Z,50.34
2023-05-14T08:04:24.988Z,50.37
2023-05-14T08:05:30.312Z,50.42
2023-05-14T08:06:35.543Z,50.45
2023-05-14T08:07:40.733Z,50.46
2023-05-14T08:08:45.891Z,50.49
2023-05-14T08:09:51.132Z,50.5
2023-05-14T08:10:56.497Z,50.51
2023-05-14T08:12:01.741Z,50.52
2023-05-14T08:13:06.911Z,50.52
2023-05-14T08:14:12.065Z,50.55
2023-05-14T08:15:17.260Z,50.56
2023-05-14T08:16:22.542Z,50.57
2023-05-14T08:17:27.920Z,50.56
2023-05-14T08:18:33.395Z,50.57
2023-05-14T08:19:38.686Z,50.57
2023-05-14T08:20:43.857Z,50.58
2023-05-14T08:21:49.021Z,50.6
2023-05-14T08:22:54.219Z,50.59
2023-05-14T08:23:59.415Z,50.58
2023-05-14T08:25:04.702Z,50.59
2023-05-14T08:26:09.947Z,50.58
2023-05-14T08:27:15.130Z,50.59
2023-05-14T08:28:20.349Z,50.62
2023-05-14T08:29:25.528Z,50.63
2023-05-14T08:30:31.254Z,50.65
2023-05-14T08:31:36.478Z,50.69
2023-05-14T08:32:41.910Z,50.7
2023-05-14T08:33:47.106Z,50.7
2023-05-14T08:34:52.378Z,50.72
2023-05-14T08:35:57.668Z,50.71
2023-05-14T08:37:02.861Z,50.71
2023-05-14T08:38:08.069Z,50.72
2023-05-14T08:39:13.301Z,50.74
2023-05-14T08:40:18.489Z,50.71
2023-05-14T08:41:23.691Z,50.7
2023-05-14T08:42:28.851Z,50.7
2023-05-14T08:43:34.059Z,50.69
2023-05-14T08:44:39.293Z,50.7
2023-05-14T08:45:44.473Z,50.69
2023-05-14T08:46:49.650Z,50.7
2023-05-14T08:47:55.052Z,50.71
2023-05-14T08:49:00.687Z,50.69
2023-05-14T08:50:06.063Z,50.69
2023-05-14T08:51:11.220Z,50.68
2023-05-14T08:52:16.399Z,50.68
2023-05-14T08:53:21.557Z,50.67
2023-05-14T08:54:26.743Z,50.67
2023-05-14T08:55:31.940Z,50.68
2023-05-14T08:56:37.116Z,50.68
2023-05-14T08:57:42.308Z,50.67
2023-05-14T08:58:47.486Z,50.68
2023-05-14T08:59:52.647Z,50.68
2023-05-14T09:00:57.886Z,50.68
2023-05-14T09:02:03.555Z,50.69
2023-05-14T09:03:09.106Z,50.68
2023-05-14T09:04:14.594Z,50.68
2023-05-14T09:05:19.862Z,50.7
2023-05-14T09:06:25.098Z,50.69
2023-05-14T09:07:30.289Z,50.68
2023-05-14T09:08:35.507Z,50.68
2023-05-14T09:09:40.688Z,50.68
2023-05-14T09:10:45.891Z,50.69
2023-05-14T09:11:51.225Z,50.65
2023-05-14T09:12:56.524Z,50.72
2023-05-14T09:14:01.899Z,50.74
2023-05-14T09:15:07.077Z,50.8
2023-05-14T09:16:12.541Z,50.9
2023-05-14T09:17:17.853Z,50.9
2023-05-14T09:18:23.377Z,50.98
2023-05-14T09:19:28.572Z,50.99
2023-05-14T09:20:33.805Z,51.05
2023-05-14T09:21:39.040Z,51.11
2023-05-14T09:22:44.244Z,51.14
2023-05-14T09:23:49.482Z,51.17
2023-05-14T09:24:54.760Z,51.21
2023-05-14T09:26:00.149Z,51.22
2023-05-14T09:27:05.393Z,51.24
2023-05-14T09:28:10.829Z,51.28
2023-05-14T09:29:16.295Z,51.31
2023-05-14T09:30:21.598Z,51.34
2023-05-14T09:31:27.293Z,51.35
2023-05-14T09:32:32.588Z,51.38
2023-05-14T09:33:37.910Z,51.41
2023-05-14T09:34:43.116Z,51.42
2023-05-14T09:35:48.397Z,51.46
2023-05-14T09:36:53.620Z,51.48
2023-05-14T09:37:58.888Z,51.51
2023-05-14T09:39:04.128Z,51.52
2023-05-14T09:40:09.374Z,51.56
2023-05-14T09:41:14.673Z,51.6
2023-05-14T09:42:19.939Z,51.63
2023-05-14T09:43:25.195Z,51.64
2023-05-14T09:44:30.426Z,51.67
2023-05-14T09:45:35.717Z,51.69
2023-05-14T09:46:41.141Z,51.77
2023-05-14T09:47:47.049Z,51.79
2023-05-14T09:48:52.274Z,51.84
2023-05-14T09:49:57.463Z,51.87
2023-05-14T09:51:06.026Z,51.9
2023-05-14T09:52:11.607Z,51.9
2023-05-14T09:53:16.948Z,51.92
2023-05-14T09:54:22.228Z,51.97
2023-05-14T09:55:27.786Z,51.99
2023-05-14T09:56:33.152Z,52.04
2023-05-14T09:57:38.704Z,52
2023-05-14T09:58:45.275Z,52.05
2023-05-14T09:59:50.507Z,52.06
2023-05-14T10:00:55.891Z,52.07
2023-05-14T10:02:01.059Z,52.07
2023-05-14T10:03:06.425Z,52.11
2023-05-14T10:04:11.822Z,52.16
2023-05-14T10:05:17.105Z,52.18
2023-05-14T10:06:22.415Z,52.18
2023-05-14T10:07:27.627Z,52.2
2023-05-14T10:08:33.038Z,52.23
2023-05-14T10:09:38.456Z,52.25
2023-05-14T10:10:43.627Z,52.2
2023-05-14T10:11:48.832Z,52.3
2023-05-14T10:12:54.034Z,52.26
2023-05-14T10:13:59.731Z,52.25
2023-05-14T10:15:07.781Z,52.24
2023-05-14T10:16:12.973Z,52.21
2023-05-14T10:17:18.558Z,52.2
2023-05-14T10:18:23.894Z,52.16
2023-05-14T10:19:29.437Z,52.1
2023-05-14T10:20:34.671Z,52.07
2023-05-14T10:21:39.854Z,52.03
2023-05-14T10:22:45.053Z,51.99
2023-05-14T10:23:50.262Z,51.94
2023-05-14T10:24:55.437Z,51.91
2023-05-14T10:26:00.625Z,51.88
2023-05-14T10:27:05.799Z,51.84
2023-05-14T10:28:10.978Z,51.81
2023-05-14T10:29:16.148Z,51.79
2023-05-14T10:30:21.423Z,51.77
2023-05-14T10:31:27.043Z,51.75
2023-05-14T10:32:32.310Z,51.74
2023-05-14T10:33:37.519Z,51.71
2023-05-14T10:34:42.704Z,51.69
2023-05-14T10:35:47.897Z,51.66
2023-05-14T10:36:53.081Z,51.65
2023-05-14T10:37:58.261Z,51.63
2023-05-14T10:39:03.512Z,51.61
2023-05-14T10:40:08.849Z,51.59
2023-05-14T10:41:14.014Z,51.56
2023-05-14T10:42:19.244Z,51.55
2023-05-14T10:43:24.407Z,51.54
2023-05-14T10:44:29.647Z,51.52
2023-05-14T10:45:34.862Z,51.48
2023-05-14T10:46:40.368Z,51.46
2023-05-14T10:47:45.828Z,51.45
2023-05-14T10:48:51.099Z,51.43
2023-05-14T10:49:56.546Z,51.39
2023-05-14T10:51:01.913Z,51.38
2023-05-14T10:52:07.146Z,51.36
2023-05-14T10:53:12.327Z,51.34
2023-05-14T10:54:17.478Z,51.31
2023-05-14T10:55:22.657Z,51.31
2023-05-14T10:56:27.813Z,51.29
2023-05-14T10:57:33.030Z,51.28
2023-05-14T10:58:38.215Z,51.25
2023-05-14T10:59:43.431Z,51.24
2023-05-14T11:00:48.615Z,51.23
2023-05-14T11:01:54.028Z,51.21
2023-05-14T11:02:59.423Z,51.19
2023-05-14T11:04:04.894Z,51.17
2023-05-14T11:05:10.151Z,51.15
2023-05-14T11:06:15.362Z,51.13
2023-05-14T11:07:20.568Z,51.12
2023-05-14T11:08:30.772Z,51.11
2023-05-14T11:09:36.997Z,51.08
2023-05-14T11:10:42.734Z,51.06
2023-05-14T11:11:47.921Z,51.04
2023-05-14T11:12:53.088Z,51.04
2023-05-14T11:13:58.283Z,51.06
2023-05-14T11:15:03.501Z,51.06
2023-05-14T11:16:25.510Z,51.06
2023-05-14T11:17:41.282Z,51.09
2023-05-14T11:18:46.605Z,51.1
2023-05-14T11:19:53.827Z,51.13
2023-05-14T11:20:59.080Z,51.16
2023-05-14T11:22:04.255Z,51.17
2023-05-14T11:23:09.523Z,51.19
2023-05-14T11:24:14.697Z,51.21
2023-05-14T11:25:19.890Z,51.24
2023-05-14T11:26:25.251Z,51.27
2023-05-14T11:27:30.458Z,51.29
2023-05-14T11:28:35.756Z,51.3
2023-05-14T11:29:40.914Z,51.33
2023-05-14T11:30:46.091Z,51.36
2023-05-14T11:31:51.393Z,51.37
2023-05-14T11:32:56.731Z,51.39
2023-05-14T11:34:01.938Z,51.43
2023-05-14T11:35:07.149Z,51.45
2023-05-14T11:36:12.382Z,51.47
2023-05-14T11:37:17.577Z,51.51
2023-05-14T11:38:22.797Z,51.54
2023-05-14T11:39:27.979Z,51.54
2023-05-14T11:40:33.184Z,51.59
2023-05-14T11:41:38.451Z,51.62
2023-05-14T11:42:43.653Z,51.63
2023-05-14T11:43:48.823Z,51.67
2023-05-14T11:44:54.053Z,51.67
2023-05-14T11:45:59.744Z,51.69
2023-05-14T11:47:04.950Z,51.7
2023-05-14T11:48:10.504Z,51.72
2023-05-14T11:49:15.783Z,51.75
2023-05-14T11:50:21.025Z,51.77
2023-05-14T11:51:26.323Z,51.8
2023-05-14T11:52:31.646Z,51.82
2023-05-14T11:53:37.024Z,51.88
2023-05-14T11:54:42.318Z,51.92
2023-05-14T11:55:49.224Z,51.95
2023-05-14T11:56:54.566Z,51.94
2023-05-14T11:57:59.871Z,51.93
2023-05-14T11:59:05.073Z,51.96
2023-05-14T12:00:10.684Z,51.98
2023-05-14T12:01:16.009Z,52
2023-05-14T12:02:21.423Z,52.01
2023-05-14T12:03:27.841Z,52.02
2023-05-14T12:04:33.452Z,52.03
2023-05-14T12:05:38.833Z,52.05
2023-05-14T12:06:44.224Z,52.08
2023-05-14T12:07:49.433Z,52.1
2023-05-14T12:08:54.635Z,52.11
2023-05-14T12:10:00.008Z,52.13
2023-05-14T12:11:08.070Z,52.14
2023-05-14T12:12:13.382Z,52.15
2023-05-14T12:13:20.115Z,52.16
2023-05-14T12:14:25.377Z,52.18
2023-05-14T12:15:30.560Z,52.17
2023-05-14T12:16:39.865Z,52.21
2023-05-14T12:17:45.205Z,52.21
2023-05-14T12:18:50.685Z,52.22
2023-05-14T12:19:56.056Z,52.26
2023-05-14T12:21:01.401Z,52.27
2023-05-14T12:22:06.737Z,52.28
2023-05-14T12:23:11.983Z,52.29
2023-05-14T12:24:17.193Z,52.32
2023-05-14T12:25:22.373Z,52.31
2023-05-14T12:26:27.569Z,52.36
2023-05-14T12:27:32.883Z,52.43
2023-05-14T12:28:40.927Z,52.41
2023-05-14T12:29:46.157Z,52.4
2023-05-14T12:30:51.431Z,52.38
2023-05-14T12:31:56.995Z,52.37
2023-05-14T12:33:02.460Z,52.39
2023-05-14T12:34:07.703Z,52.36
2023-05-14T12:35:13.035Z,52.39
2023-05-14T12:36:25.014Z,52.41
2023-05-14T12:37:33.143Z,52.42
2023-05-14T12:38:38.322Z,52.47
2023-05-14T12:39:43.516Z,52.47
2023-05-14T12:40:48.749Z,52.45
2023-05-14T12:41:53.923Z,52.42
2023-05-14T12:42:59.648Z,52.4
2023-05-14T12:44:04.818Z,52.37
2023-05-14T12:45:10.353Z,52.31
2023-05-14T12:46:15.633Z,52.24
2023-05-14T12:47:21.274Z,52.15
2023-05-14T12:48:26.559Z,52.07
2023-05-14T12:49:31.788Z,51.99
2023-05-14T12:50:40.015Z,51.92
2023-05-14T12:51:45.205Z,51.85
2023-05-14T12:52:50.440Z,51.78
2023-05-14T12:53:55.750Z,51.73
2023-05-14T12:55:00.953Z,51.67
2023-05-14T12:56:06.150Z,51.62
2023-05-14T12:57:11.349Z,51.56
2023-05-14T12:58:16.492Z,51.52
2023-05-14T12:59:21.742Z,51.49
2023-05-14T13:00:27.451Z,51.44
2023-05-14T13:01:32.801Z,51.42
2023-05-14T13:02:45.682Z,51.37
2023-05-14T13:03:50.997Z,51.35
2023-05-14T13:04:56.280Z,51.32
2023-05-14T13:06:01.528Z,51.29
2023-05-14T13:07:06.734Z,51.27
2023-05-14T13:08:11.897Z,51.24
2023-05-14T13:09:17.151Z,51.21
2023-05-14T13:10:22.353Z,51.19
2023-05-14T13:11:27.550Z,51.17
2023-05-14T13:12:32.843Z,51.14
2023-05-14T13:13:39.317Z,51.12
2023-05-14T13:14:44.506Z,51.11
2023-05-14T13:15:49.727Z,51.09
2023-05-14T13:16:55.105Z,51.04
2023-05-14T13:18:00.401Z,51.02
2023-05-14T13:19:05.738Z,51.02
2023-05-14T13:20:10.976Z,51
2023-05-14T13:21:16.209Z,50.97
2023-05-14T13:22:21.367Z,50.95
2023-05-14T13:23:26.554Z,50.94
2023-05-14T13:24:31.755Z,50.93
2023-05-14T13:25:37.012Z,50.93
2023-05-14T13:26:42.153Z,50.92
2023-05-14T13:27:47.420Z,50.9
2023-05-14T13:28:52.634Z,50.89
2023-05-14T13:29:57.840Z,50.88
2023-05-14T13:31:03.146Z,50.86
2023-05-14T13:32:08.384Z,50.86
2023-05-14T13:33:13.660Z,50.85
2023-05-14T13:34:18.914Z,50.83
2023-05-14T13:35:25.029Z,50.82
2023-05-14T13:36:30.517Z,50.81
2023-05-14T13:37:35.656Z,50.8
2023-05-14T13:38:40.882Z,50.79
2023-05-14T13:39:46.025Z,50.78
2023-05-14T13:40:51.206Z,50.77
2023-05-14T13:41:56.383Z,50.73
2023-05-14T13:43:01.578Z,50.71
2023-05-14T13:44:06.732Z,50.74
2023-05-14T13:45:11.923Z,50.79
2023-05-14T13:46:17.217Z,50.84
2023-05-14T13:47:22.544Z,50.87
2023-05-14T13:48:27.698Z,50.95
2023-05-14T13:49:32.878Z,50.96
2023-05-14T13:50:38.061Z,50.98
2023-05-14T13:51:43.270Z,51.02
2023-05-14T13:52:48.477Z,51.03
2023-05-14T13:54:59.809Z,51.08
2023-05-14T13:56:04.980Z,51.12
2023-05-14T13:57:10.167Z,51.15
2023-05-14T13:58:15.432Z,51.17
2023-05-14T13:59:20.625Z,51.24
2023-05-14T14:00:25.816Z,51.31
2023-05-14T14:01:31.156Z,51.36
2023-05-14T14:02:37.173Z,51.38
2023-05-14T14:03:42.438Z,51.4
2023-05-14T14:04:47.686Z,51.43
2023-05-14T14:05:52.991Z,51.47
2023-05-14T14:06:58.186Z,51.53